Time;durP1;ratioP1;P1;durP2;ratioP2;P2;SDS_P1;SDS_P2;PMS_P1;PMS_P2;Temp;Humidity;BMP_temperature;BMP_pressure;BME280_temperature;BME280_humidity;BME280_pressure;Samples;Min_cycle;Max_cycle;Signal;HPM_P1;HPM_P2
2023/08/01 00:00:09;;;;;;;18.70;7.20;;;;;;;18.85;86.60;100583.02;107532;1254;97889;-60
2023/08/01 00:02:58;;;;;;;26.30;7.70;;;;;;;18.81;86.39;100580.72;107639;1254;113352;-59
2023/08/01 00:05:27;;;;;;;27.10;6.10;;;;;;;18.76;86.35;100579.67;107595;1251;110190;-59
2023/08/01 00:07:55;;;;;;;14.20;7.00;;;;;;;18.74;86.47;100578.22;107519;1250;108327;-59
2023/08/01 00:10:23;;;;;;;22.10;7.00;;;;;;;18.74;86.64;100580.31;107557;1251;97903;-58
2023/08/01 00:12:51;;;;;;;10.00;5.60;;;;;;;18.74;86.67;100580.65;107484;1251;98433;-59
2023/08/01 00:15:19;;;;;;;18.60;6.70;;;;;;;18.74;86.86;100581.02;107497;1251;112371;-60
2023/08/01 00:17:47;;;;;;;17.90;6.40;;;;;;;18.74;86.97;100583.77;107477;1251;109349;-59
2023/08/01 00:20:16;;;;;;;16.80;7.20;;;;;;;18.73;87.03;100581.98;107448;1251;109738;-58
2023/08/01 00:22:44;;;;;;;13.00;7.20;;;;;;;18.72;87.05;100581.23;107459;1251;97812;-60
2023/08/01 00:25:12;;;;;;;13.20;6.60;;;;;;;18.73;87.16;100580.81;107488;1254;99815;-58
2023/08/01 00:27:41;;;;;;;11.80;6.60;;;;;;;18.73;87.28;100579.14;107537;1251;110769;-59
2023/08/01 00:30:10;;;;;;;19.30;7.40;;;;;;;18.74;87.30;100577.80;107504;1254;109157;-60
2023/08/01 00:32:39;;;;;;;14.80;6.50;;;;;;;18.73;87.27;100573.10;107618;1254;108828;-62
2023/08/01 00:35:08;;;;;;;13.00;6.40;;;;;;;18.72;87.40;100569.23;107515;1254;98068;-59
2023/08/01 00:37:37;;;;;;;18.10;6.20;;;;;;;18.71;87.22;100565.91;107596;1251;97742;-59
2023/08/01 00:40:06;;;;;;;17.80;6.60;;;;;;;18.69;87.11;100566.61;107519;1251;111178;-60
2023/08/01 00:42:38;;;;;;;10.20;7.00;;;;;;;18.66;87.27;100569.09;107541;1251;109882;-60
2023/08/01 00:45:07;;;;;;;14.00;6.40;;;;;;;18.67;87.55;100567.35;107673;1256;108243;-60
2023/08/01 00:47:36;;;;;;;15.60;6.00;;;;;;;18.67;87.81;100568.43;107530;1251;97826;-59
2023/08/01 00:50:06;;;;;;;15.20;5.90;;;;;;;18.67;87.85;100572.70;107582;1252;97771;-61
2023/08/01 00:52:35;;;;;;;12.70;6.00;;;;;;;18.65;87.80;100574.95;107581;1251;111211;-59
2023/08/01 00:55:05;;;;;;;25.70;6.70;;;;;;;18.59;87.58;100576.27;107560;1251;109403;-61
2023/08/01 00:57:34;;;;;;;13.80;6.00;;;;;;;18.55;87.30;100580.75;107641;1257;107884;-59
2023/08/01 01:00:02;;;;;;;17.60;5.80;;;;;;;18.50;87.37;100588.80;107618;1251;97953;-61
2023/08/01 01:02:31;;;;;;;21.80;7.00;;;;;;;18.46;87.58;100586.20;107615;1254;97806;-60
2023/08/01 01:05:00;;;;;;;15.40;5.70;;;;;;;18.42;87.84;100586.70;107602;1254;111432;-60
2023/08/01 01:07:30;;;;;;;13.20;6.30;;;;;;;18.37;88.41;100585.17;107593;1254;109800;-59
2023/08/01 01:09:58;;;;;;;14.80;6.20;;;;;;;18.33;88.14;100585.77;107562;1253;106943;-60
2023/08/01 01:12:27;;;;;;;12.40;6.30;;;;;;;18.32;87.96;100587.59;107626;1256;97934;-59
2023/08/01 01:14:55;;;;;;;14.50;6.60;;;;;;;18.30;88.36;100581.21;107595;1254;97751;-60
2023/08/01 01:17:23;;;;;;;14.10;6.30;;;;;;;18.29;88.21;100579.69;107608;1254;111977;-60
2023/08/01 01:19:54;;;;;;;18.20;7.10;;;;;;;18.26;88.13;100581.36;107604;1254;109730;-58
2023/08/01 01:22:22;;;;;;;17.30;6.20;;;;;;;18.24;88.41;100588.67;107575;1251;108832;-61
2023/08/01 01:24:52;;;;;;;23.50;6.20;;;;;;;18.24;88.58;100586.75;107585;1251;97950;-58
2023/08/01 01:27:23;;;;;;;20.90;6.60;;;;;;;18.24;88.79;100581.73;107594;1254;98466;-58
2023/08/01 01:29:51;;;;;;;15.40;6.70;;;;;;;18.25;88.86;100576.54;107624;1254;113053;-62
2023/08/01 01:32:21;;;;;;;23.10;7.10;;;;;;;18.27;88.93;100574.22;107617;1251;109667;-59
2023/08/01 01:34:49;;;;;;;20.70;7.20;;;;;;;18.27;89.00;100571.24;107617;1256;107606;-58
2023/08/01 01:37:18;;;;;;;22.30;7.40;;;;;;;18.28;89.11;100571.14;107564;1252;97954;-59
2023/08/01 01:39:46;;;;;;;13.90;6.80;;;;;;;18.29;89.03;100571.81;107436;1254;98030;-59
2023/08/01 01:42:14;;;;;;;20.00;6.90;;;;;;;18.28;89.03;100572.90;107542;1251;111062;-59
2023/08/01 01:44:42;;;;;;;17.90;6.20;;;;;;;18.29;89.38;100576.25;107569;1250;109606;-59
2023/08/01 01:47:10;;;;;;;16.40;6.20;;;;;;;18.30;89.40;100575.56;107516;1251;108925;-61
2023/08/01 01:49:39;;;;;;;21.90;6.60;;;;;;;18.30;89.27;100582.51;107500;1254;97810;-59
2023/08/01 01:52:08;;;;;;;19.90;6.20;;;;;;;18.30;89.19;100583.22;107554;1254;97834;-61
2023/08/01 01:54:36;;;;;;;9.50;5.80;;;;;;;18.27;88.77;100584.86;107552;1256;110153;-59
2023/08/01 01:57:05;;;;;;;17.40;6.00;;;;;;;18.24;88.74;100586.50;107567;1254;110714;-60
2023/08/01 01:59:33;;;;;;;18.50;6.10;;;;;;;18.22;88.55;100586.25;107626;1254;108035;-59
2023/08/01 02:02:03;;;;;;;26.00;6.90;;;;;;;18.21;88.59;100588.05;107641;1251;97841;-60
2023/08/01 02:04:32;;;;;;;25.10;6.90;;;;;;;18.19;88.71;100591.30;107544;1251;97714;-59
2023/08/01 02:07:00;;;;;;;18.40;6.30;;;;;;;18.17;88.51;100592.45;107551;1254;111951;-58
2023/08/01 02:09:29;;;;;;;20.80;6.20;;;;;;;18.16;88.53;100593.89;107592;1250;109746;-59
2023/08/01 02:11:57;;;;;;;25.70;6.10;;;;;;;18.14;88.62;100592.20;107645;1253;108572;-60
2023/08/01 02:14:25;;;;;;;13.80;5.60;;;;;;;18.14;88.72;100594.80;107522;1254;97901;-60
2023/08/01 02:16:54;;;;;;;22.70;7.60;;;;;;;18.14;88.98;100603.30;107655;1251;97703;-60
2023/08/01 02:19:22;;;;;;;10.10;7.10;;;;;;;18.12;89.07;100612.98;107518;1251;111793;-60
2023/08/01 02:21:51;;;;;;;16.20;7.30;;;;;;;18.07;88.69;100611.80;107537;1251;109213;-60
2023/08/01 02:24:19;;;;;;;21.50;6.50;;;;;;;18.06;89.13;100617.06;107705;1251;107595;-61
2023/08/01 02:26:49;;;;;;;22.20;7.00;;;;;;;18.05;89.13;100619.05;107629;1251;97867;-60
2023/08/01 02:29:18;;;;;;;24.40;7.80;;;;;;;18.00;88.97;100619.28;107529;1251;97834;-58
2023/08/01 02:31:46;;;;;;;17.80;7.40;;;;;;;17.99;89.13;100615.91;107550;1254;111878;-58
2023/08/01 02:34:14;;;;;;;27.60;8.10;;;;;;;17.98;89.32;100612.69;107605;1254;108986;-59
2023/08/01 02:36:43;;;;;;;32.50;7.90;;;;;;;17.98;89.49;100608.45;107630;1254;108244;-59
2023/08/01 02:39:12;;;;;;;33.40;8.40;;;;;;;17.97;89.31;100610.48;107523;1251;97809;-58
2023/08/01 02:41:40;;;;;;;31.60;8.10;;;;;;;17.94;89.20;100614.34;107650;1251;98350;-59
2023/08/01 02:44:10;;;;;;;20.20;6.50;;;;;;;17.92;89.31;100618.90;107557;1251;111388;-58
2023/08/01 02:46:38;;;;;;;19.00;7.30;;;;;;;17.87;89.78;100619.46;107565;1254;109485;-59
2023/08/01 02:49:07;;;;;;;16.00;6.50;;;;;;;17.83;89.48;100618.73;107630;1251;107964;-59
2023/08/01 02:51:35;;;;;;;26.20;6.80;;;;;;;17.82;89.70;100622.03;107601;1251;98020;-59
2023/08/01 02:54:03;;;;;;;24.90;6.90;;;;;;;17.83;89.76;100622.75;107579;1254;97701;-59
2023/08/01 02:56:32;;;;;;;17.50;6.60;;;;;;;17.83;89.88;100620.70;107547;1253;112054;-59
2023/08/01 02:59:04;;;;;;;14.90;5.90;;;;;;;17.83;90.03;100617.55;107648;1253;109195;-62
2023/08/01 03:01:33;;;;;;;11.30;6.30;;;;;;;17.86;90.14;100611.65;107569;1251;108123;-62
2023/08/01 03:04:06;;;;;;;19.70;6.50;;;;;;;17.87;89.92;100615.98;107685;1251;97790;-60
2023/08/01 03:06:34;;;;;;;13.40;7.00;;;;;;;17.85;90.07;100615.98;107653;1250;97910;-62
2023/08/01 03:09:07;;;;;;;21.00;6.30;;;;;;;17.81;89.73;100616.23;107586;1251;111457;-60
2023/08/01 03:11:37;;;;;;;23.40;9.40;;;;;;;17.80;89.70;100616.35;107731;1251;110388;-59
2023/08/01 03:14:05;;;;;;;21.00;6.50;;;;;;;17.82;89.91;100616.88;107602;1251;107339;-59
2023/08/01 03:16:33;;;;;;;20.40;6.60;;;;;;;17.82;89.66;100616.99;107444;1254;97796;-60
2023/08/01 03:19:04;;;;;;;13.40;7.50;;;;;;;17.83;89.66;100614.73;107633;1254;97908;-60
2023/08/01 03:21:33;;;;;;;16.90;6.50;;;;;;;17.83;89.59;100613.20;107654;1254;112071;-59
2023/08/01 03:24:03;;;;;;;13.90;6.30;;;;;;;17.85;89.76;100613.77;107661;1254;110067;-67
2023/08/01 03:26:31;;;;;;;14.00;6.00;;;;;;;17.87;89.84;100613.77;107596;1255;108614;-67
2023/08/01 03:28:59;;;;;;;14.00;6.50;;;;;;;17.90;90.14;100614.13;107599;1254;97825;-70
2023/08/01 03:31:28;;;;;;;20.10;5.90;;;;;;;17.93;90.25;100613.75;107626;1254;98440;-68
2023/08/01 03:33:58;;;;;;;11.40;6.00;;;;;;;17.97;90.38;100612.89;107611;1253;109909;-68
2023/08/01 03:36:28;;;;;;;17.00;6.00;;;;;;;18.01;90.20;100619.64;107651;1254;109952;-67
2023/08/01 03:38:56;;;;;;;11.80;6.60;;;;;;;18.05;90.10;100619.05;107460;1251;109398;-67
2023/08/01 03:41:24;;;;;;;18.40;5.60;;;;;;;18.08;90.26;100615.33;107477;1251;97812;-68
2023/08/01 03:43:52;;;;;;;11.70;6.60;;;;;;;18.12;90.48;100615.80;107491;1251;98321;-68
2023/08/01 03:46:21;;;;;;;18.30;6.40;;;;;;;18.17;90.48;100615.39;107442;1254;111397;-68
2023/08/01 03:48:50;;;;;;;17.20;6.60;;;;;;;18.19;90.22;100610.27;107651;1251;109574;-68
2023/08/01 03:51:19;;;;;;;10.20;6.20;;;;;;;18.21;90.25;100601.54;107455;1254;108281;-66
2023/08/01 03:53:47;;;;;;;13.70;6.20;;;;;;;18.27;90.42;100600.86;107646;1254;97895;-66
2023/08/01 03:56:34;;;;;;;15.70;6.60;;;;;;;18.30;91.49;100600.60;107630;1253;97819;-65
2023/08/01 03:59:04;;;;;;;14.10;6.70;;;;;;;18.31;91.10;100598.15;107639;1254;111515;-68
2023/08/01 04:01:33;;;;;;;16.60;6.10;;;;;;;18.34;90.66;100599.51;107466;1251;109688;-67
2023/08/01 04:04:01;;;;;;;13.70;6.90;;;;;;;18.36;90.80;100596.99;107664;1255;108148;-67
2023/08/01 04:06:30;;;;;;;13.80;6.50;;;;;;;18.38;90.52;100607.89;107480;1251;97902;-66
2023/08/01 04:08:59;;;;;;;12.20;6.30;;;;;;;18.42;90.67;100605.73;107519;1251;97945;-68
2023/08/01 04:11:29;;;;;;;15.60;7.20;;;;;;;18.48;90.76;100606.88;107510;1251;111580;-66
2023/08/01 04:13:58;;;;;;;12.40;6.70;;;;;;;18.52;90.64;100604.45;107513;1251;109462;-66
2023/08/01 04:16:26;;;;;;;14.70;6.90;;;;;;;18.54;90.60;100602.34;107432;1254;108577;-66
2023/08/01 04:18:55;;;;;;;17.30;6.10;;;;;;;18.59;91.01;100608.55;107497;1251;98001;-67
2023/08/01 04:21:23;;;;;;;12.50;6.50;;;;;;;18.63;90.93;100610.59;107455;1251;97840;-67
2023/08/01 04:23:52;;;;;;;14.40;7.50;;;;;;;18.68;90.47;100613.38;107691;1251;111816;-68
2023/08/01 04:26:20;;;;;;;13.70;7.00;;;;;;;18.74;90.42;100615.23;107493;1250;109870;-66
2023/08/01 04:28:48;;;;;;;18.00;7.10;;;;;;;18.81;90.32;100612.34;107480;1251;107189;-70
2023/08/01 04:31:17;;;;;;;15.20;7.50;;;;;;;18.87;90.15;100611.59;107481;1254;97876;-67
2023/08/01 04:33:45;;;;;;;12.50;7.10;;;;;;;18.89;89.70;100611.23;107636;1251;98324;-66
2023/08/01 04:36:13;;;;;;;20.80;7.20;;;;;;;18.93;89.59;100610.29;107493;1251;113007;-67
2023/08/01 04:38:42;;;;;;;15.60;7.40;;;;;;;18.98;89.64;100610.73;107535;1251;108742;-67
2023/08/01 04:41:10;;;;;;;12.40;7.30;;;;;;;19.01;89.34;100617.11;107679;1256;106827;-68
2023/08/01 04:43:38;;;;;;;20.80;8.10;;;;;;;19.02;88.93;100620.16;107631;1256;97822;-68
2023/08/01 04:46:07;;;;;;;24.00;8.10;;;;;;;19.06;88.89;100629.91;107547;1251;98458;-66
2023/08/01 04:48:35;;;;;;;20.90;8.10;;;;;;;19.15;88.92;100628.40;107615;1251;111834;-67
2023/08/01 04:51:04;;;;;;;18.70;7.10;;;;;;;19.20;88.55;100626.44;107518;1251;109476;-64
2023/08/01 04:53:32;;;;;;;22.50;8.60;;;;;;;19.27;88.26;100629.96;107517;1251;108179;-67
2023/08/01 04:56:00;;;;;;;17.90;8.30;;;;;;;19.37;88.27;100632.45;107467;1251;97961;-67
2023/08/01 04:58:30;;;;;;;12.40;7.60;;;;;;;19.46;87.94;100632.58;107606;1254;97822;-66
2023/08/01 05:00:58;;;;;;;14.90;8.20;;;;;;;19.54;87.51;100635.04;107580;1251;112358;-67
2023/08/01 05:03:27;;;;;;;13.30;9.70;;;;;;;19.64;87.20;100633.56;107537;1251;108960;-67
2023/08/01 05:05:56;;;;;;;19.00;9.60;;;;;;;19.68;86.31;100630.86;107603;1251;107434;-71
2023/08/01 05:08:29;;;;;;;15.40;8.70;;;;;;;19.74;86.23;100630.55;107472;1251;97890;-67
2023/08/01 05:10:57;;;;;;;13.60;8.40;;;;;;;19.77;85.96;100630.27;107605;1254;97743;-69
2023/08/01 05:13:25;;;;;;;17.70;9.00;;;;;;;19.85;86.08;100632.19;107549;1254;111469;-67
2023/08/01 05:15:54;;;;;;;10.30;7.80;;;;;;;19.96;85.95;100631.55;107569;1250;109706;-69
2023/08/01 05:18:22;;;;;;;23.80;12.00;;;;;;;20.07;85.94;100631.36;107671;1251;108246;-67
2023/08/01 05:20:50;;;;;;;14.80;10.40;;;;;;;20.16;85.83;100635.94;107557;1251;97672;-69
2023/08/01 05:23:18;;;;;;;20.80;10.30;;;;;;;20.25;85.62;100635.73;107594;1254;97803;-68
2023/08/01 05:25:47;;;;;;;16.50;9.60;;;;;;;20.29;84.99;100640.20;107543;1251;112535;-66
2023/08/01 05:28:15;;;;;;;20.90;9.90;;;;;;;20.31;84.67;100634.54;107540;1250;109430;-67
2023/08/01 05:30:45;;;;;;;16.80;9.40;;;;;;;20.35;84.68;100636.94;107616;1251;108231;-67
2023/08/01 05:33:14;;;;;;;16.80;12.90;;;;;;;20.38;84.43;100641.83;107590;1254;97978;-66
2023/08/01 05:35:42;;;;;;;21.00;10.90;;;;;;;20.40;84.19;100642.59;107416;1254;97863;-67
2023/08/01 05:38:11;;;;;;;23.40;10.30;;;;;;;20.44;84.07;100644.49;107592;1251;109405;-68
2023/08/01 05:40:39;;;;;;;28.80;15.30;;;;;;;20.46;83.63;100650.19;107583;1251;109231;-68
2023/08/01 05:43:08;;;;;;;18.60;10.50;;;;;;;20.49;83.34;100651.48;107538;1253;107825;-68
2023/08/01 05:45:37;;;;;;;28.00;12.20;;;;;;;20.49;82.88;100653.33;107628;1256;98532;-68
2023/08/01 05:48:05;;;;;;;17.70;11.30;;;;;;;20.53;83.08;100655.67;107538;1253;97997;-67
2023/08/01 05:50:42;;;;;;;18.60;11.70;;;;;;;20.58;82.87;100654.05;107480;1253;111691;-70
2023/08/01 05:53:11;;;;;;;29.30;12.90;;;;;;;20.54;82.29;100655.52;107614;1253;109223;-67
2023/08/01 05:55:39;;;;;;;20.80;11.90;;;;;;;20.55;82.54;100653.15;107546;1251;108814;-67
2023/08/01 05:58:07;;;;;;;18.80;12.10;;;;;;;20.66;82.72;100660.09;107550;1254;97826;-65
2023/08/01 06:00:36;;;;;;;22.80;11.50;;;;;;;20.76;82.52;100661.02;107590;1253;97873;-67
2023/08/01 06:03:04;;;;;;;16.50;11.90;;;;;;;20.87;82.44;100655.95;107579;1250;111761;-67
2023/08/01 06:05:33;;;;;;;18.00;12.70;;;;;;;20.93;82.08;100651.42;107555;1254;110106;-68
2023/08/01 06:08:03;;;;;;;16.50;11.60;;;;;;;21.01;81.85;100651.86;107531;1253;108140;-68
2023/08/01 06:10:32;;;;;;;18.40;11.90;;;;;;;21.05;81.53;100653.33;107583;1253;97899;-68
2023/08/01 06:13:00;;;;;;;18.40;13.20;;;;;;;21.07;81.32;100652.54;107540;1251;97862;-66
2023/08/01 06:15:28;;;;;;;22.30;12.70;;;;;;;21.06;80.94;100647.49;107585;1251;112394;-69
2023/08/01 06:17:57;;;;;;;21.70;12.00;;;;;;;21.12;81.08;100644.26;107564;1251;109976;-68
2023/08/01 06:20:25;;;;;;;19.10;11.90;;;;;;;21.24;81.04;100648.73;107602;1251;106779;-69
2023/08/01 06:22:53;;;;;;;19.30;12.90;;;;;;;21.28;79.85;100646.45;107543;1251;97932;-67
2023/08/01 06:25:22;;;;;;;18.80;12.10;;;;;;;21.33;79.96;100648.17;107557;1251;97710;-69
2023/08/01 06:27:51;;;;;;;16.80;11.40;;;;;;;21.33;79.33;100648.46;107507;1253;112266;-69
2023/08/01 06:30:20;;;;;;;15.10;11.30;;;;;;;21.41;79.43;100644.96;107581;1250;109832;-67
2023/08/01 06:32:48;;;;;;;18.00;11.40;;;;;;;21.53;79.35;100641.89;107538;1251;108388;-65
2023/08/01 06:35:17;;;;;;;17.20;13.00;;;;;;;21.66;79.02;100642.36;107599;1251;97886;-67
2023/08/01 06:37:45;;;;;;;20.10;12.50;;;;;;;21.68;78.16;100644.89;107544;1253;97725;-68
2023/08/01 06:40:14;;;;;;;16.40;12.40;;;;;;;21.72;78.30;100645.66;107589;1251;111010;-67
2023/08/01 06:42:42;;;;;;;21.10;11.80;;;;;;;21.78;77.54;100646.56;107537;1251;110230;-67
2023/08/01 06:45:11;;;;;;;29.70;12.00;;;;;;;21.84;77.35;100651.19;107598;1256;108707;-68
2023/08/01 06:47:39;;;;;;;18.00;11.20;;;;;;;21.94;77.35;100650.65;107463;1253;97729;-66
2023/08/01 06:50:10;;;;;;;18.70;11.70;;;;;;;22.04;75.88;100651.63;107547;1251;97784;-67
2023/08/01 06:52:38;;;;;;;21.00;11.80;;;;;;;21.99;75.51;100649.24;107618;1251;112355;-67
2023/08/01 06:55:06;;;;;;;20.90;10.90;;;;;;;22.08;75.84;100642.73;107483;1251;109631;-68
2023/08/01 06:57:38;;;;;;;13.20;10.30;;;;;;;22.23;75.71;100646.09;107488;1250;108288;-68
2023/08/01 07:00:07;;;;;;;20.90;11.50;;;;;;;22.37;74.75;100644.94;107483;1251;97832;-67
2023/08/01 07:02:38;;;;;;;24.60;11.70;;;;;;;22.42;74.35;100650.30;107560;1251;97841;-72
2023/08/01 07:05:07;;;;;;;26.70;11.80;;;;;;;22.54;73.97;100648.98;107549;1254;112134;-65
2023/08/01 07:07:35;;;;;;;11.80;10.50;;;;;;;22.65;73.83;100646.52;107512;1251;108703;-67
2023/08/01 07:10:04;;;;;;;15.30;11.50;;;;;;;22.64;72.87;100648.27;107484;1254;107331;-67
2023/08/01 07:12:32;;;;;;;18.30;14.10;;;;;;;22.48;72.71;100641.15;107586;1251;98130;-66
2023/08/01 07:15:01;;;;;;;20.90;12.90;;;;;;;22.51;73.37;100638.19;107510;1251;97685;-67
2023/08/01 07:17:30;;;;;;;24.40;12.20;;;;;;;22.54;73.36;100638.09;107568;1252;110374;-67
2023/08/01 07:19:58;;;;;;;16.40;11.30;;;;;;;22.51;73.31;100635.20;107530;1251;109508;-66
2023/08/01 07:22:27;;;;;;;17.70;10.20;;;;;;;22.51;73.56;100633.17;107537;1254;108800;-69
2023/08/01 07:24:55;;;;;;;22.50;9.80;;;;;;;22.57;73.93;100632.72;107471;1253;99033;-69
2023/08/01 07:27:23;;;;;;;19.80;11.30;;;;;;;22.60;73.61;100633.02;107553;1251;97679;-67
2023/08/01 07:29:52;;;;;;;16.10;11.40;;;;;;;22.64;73.83;100633.90;107519;1250;111178;-68
2023/08/01 07:32:23;;;;;;;19.40;10.60;;;;;;;22.66;73.19;100631.86;107538;1251;110019;-67
2023/08/01 07:34:53;;;;;;;21.10;10.30;;;;;;;22.60;72.73;100625.08;107563;1251;107793;-68
2023/08/01 07:37:22;;;;;;;15.70;10.90;;;;;;;22.49;72.69;100624.41;107491;1251;97902;-67
2023/08/01 07:39:51;;;;;;;17.80;10.70;;;;;;;22.47;73.25;100622.66;107531;1254;98075;-71
2023/08/01 07:42:25;;;;;;;14.20;10.20;;;;;;;22.54;73.57;100622.83;107511;1251;111696;-70
2023/08/01 07:44:58;;;;;;;16.90;10.30;;;;;;;22.64;73.40;100624.95;107553;1254;109513;-67
2023/08/01 07:47:28;;;;;;;16.10;11.20;;;;;;;22.70;73.00;100622.57;107638;1253;108415;-68
2023/08/01 07:49:57;;;;;;;17.80;10.70;;;;;;;22.70;72.83;100619.70;107541;1251;97845;-67
2023/08/01 07:52:25;;;;;;;18.20;10.30;;;;;;;22.70;73.19;100623.58;107611;1251;97876;-69
2023/08/01 07:54:55;;;;;;;16.70;11.00;;;;;;;22.74;73.02;100615.10;107586;1251;111413;-67
2023/08/01 07:57:24;;;;;;;17.30;9.30;;;;;;;22.83;72.88;100612.05;107535;1251;110041;-67
2023/08/01 07:59:52;;;;;;;15.00;10.20;;;;;;;22.92;73.04;100604.91;107544;1251;107735;-69
2023/08/01 08:02:24;;;;;;;16.10;9.30;;;;;;;23.02;72.48;100603.86;107497;1251;97832;-67
2023/08/01 08:04:54;;;;;;;13.00;9.10;;;;;;;23.12;72.23;100600.61;107524;1254;97909;-67
2023/08/01 08:07:22;;;;;;;12.50;8.30;;;;;;;23.21;71.90;100595.67;107543;1251;113329;-67
2023/08/01 08:09:50;;;;;;;9.70;7.90;;;;;;;23.23;71.06;100594.42;107520;1254;109366;-67
2023/08/01 08:12:18;;;;;;;15.30;8.70;;;;;;;23.30;71.33;100592.34;107539;1251;108654;-65
2023/08/01 08:14:47;;;;;;;17.40;8.80;;;;;;;23.38;71.29;100595.73;107508;1251;97912;-67
2023/08/01 08:17:15;;;;;;;17.70;8.70;;;;;;;23.50;71.68;100590.99;107462;1251;97765;-67
2023/08/01 08:19:43;;;;;;;14.40;8.00;;;;;;;23.66;71.53;100595.05;107576;1251;111196;-67
2023/08/01 08:22:12;;;;;;;15.50;6.80;;;;;;;23.78;70.81;100598.27;107607;1253;111309;-67
2023/08/01 08:24:40;;;;;;;12.00;7.10;;;;;;;23.86;69.38;100597.34;107577;1254;107296;-66
2023/08/01 08:27:09;;;;;;;12.30;7.60;;;;;;;23.93;68.79;100593.76;107589;1254;97937;-66
2023/08/01 08:29:37;;;;;;;15.80;8.30;;;;;;;24.01;68.52;100594.14;107611;1251;98350;-66
2023/08/01 08:32:06;;;;;;;14.90;7.30;;;;;;;24.11;68.78;100589.55;107639;1251;111739;-65
2023/08/01 08:34:35;;;;;;;17.20;8.90;;;;;;;24.23;67.04;100589.98;107610;1254;107492;-66
2023/08/01 08:37:04;;;;;;;14.90;8.00;;;;;;;24.33;67.31;100581.00;107599;1251;108685;-66
2023/08/01 08:39:32;;;;;;;13.60;8.20;;;;;;;24.44;66.96;100575.45;107465;1251;97876;-66
2023/08/01 08:42:01;;;;;;;13.80;7.90;;;;;;;24.53;66.65;100573.96;107551;1254;97703;-66
2023/08/01 08:44:30;;;;;;;10.70;7.60;;;;;;;24.58;66.12;100568.98;107583;1251;111741;-66
2023/08/01 08:47:03;;;;;;;16.90;6.90;;;;;;;24.67;65.83;100564.45;107644;1251;109544;-67
2023/08/01 08:49:32;;;;;;;;;;;;;;;24.76;65.28;100562.52;107537;1253;107107;-67
2023/08/01 08:52:03;;;;;;;13.00;5.80;;;;;;;24.89;65.50;100557.91;107610;1256;97838;-68
2023/08/01 08:54:31;;;;;;;9.40;5.40;;;;;;;25.04;65.46;100554.27;107583;1251;97822;-68
2023/08/01 08:57:00;;;;;;;11.60;5.30;;;;;;;25.24;64.00;100551.81;107636;1251;112690;-67
2023/08/01 08:59:30;;;;;;;14.40;5.30;;;;;;;25.39;63.29;100551.25;107578;1252;108281;-67
2023/08/01 09:02:01;;;;;;;12.30;6.00;;;;;;;25.56;63.20;100548.61;107617;1254;106797;-69
2023/08/01 09:04:31;;;;;;;10.00;5.00;;;;;;;25.76;63.31;100546.44;107505;1254;97807;-65
2023/08/01 09:07:03;;;;;;;15.50;5.90;;;;;;;25.91;62.65;100543.88;107692;1253;97914;-67
2023/08/01 09:09:33;;;;;;;7.70;5.90;;;;;;;26.05;62.09;100537.88;107632;1253;111918;-68
2023/08/01 09:12:01;;;;;;;9.90;5.60;;;;;;;26.23;61.40;100537.20;107594;1254;110294;-66
2023/08/01 09:14:32;;;;;;;11.10;5.10;;;;;;;26.42;60.99;100535.46;107602;1252;106657;-66
2023/08/01 09:17:08;;;;;;;13.60;4.90;;;;;;;26.54;57.59;100541.41;107585;1255;97710;-68
2023/08/01 09:19:36;;;;;;;7.70;5.00;;;;;;;26.62;57.23;100533.25;107677;1254;98360;-67
2023/08/01 09:22:13;;;;;;;13.50;5.30;;;;;;;26.77;58.20;100536.09;107474;1251;112700;-67
2023/08/01 09:24:52;;;;;;;12.40;4.80;;;;;;;27.12;57.09;100531.77;107603;1251;109465;-68
2023/08/01 09:27:23;;;;;;;11.10;6.10;;;;;;;27.52;57.08;100536.96;107607;1251;107735;-67
2023/08/01 09:29:51;;;;;;;7.60;4.40;;;;;;;27.99;56.08;100532.76;107571;1253;97831;-69
2023/08/01 09:32:19;;;;;;;7.50;4.00;;;;;;;28.53;55.61;100532.34;107649;1252;97831;-67
2023/08/01 09:34:59;;;;;;;7.50;4.10;;;;;;;29.07;49.98;100524.98;107615;1254;111921;-67
2023/08/01 09:37:38;;;;;;;7.50;3.20;;;;;;;29.50;51.12;100520.13;107552;1253;109749;-66
2023/08/01 09:40:09;;;;;;;6.20;3.50;;;;;;;29.92;49.38;100514.88;107593;1251;108152;-67
2023/08/01 09:42:42;;;;;;;9.10;3.40;;;;;;;29.83;47.84;100511.95;107615;1250;97825;-68
2023/08/01 09:45:17;;;;;;;10.50;2.70;;;;;;;30.09;47.24;100511.55;107637;1250;98383;-68
2023/08/01 09:47:45;;;;;;;8.20;2.80;;;;;;;30.46;47.41;100508.08;107252;1254;112209;-66
2023/08/01 09:50:23;;;;;;;5.10;3.20;;;;;;;30.75;43.77;100504.04;107602;1254;109046;-67
2023/08/01 09:52:54;;;;;;;7.10;3.10;;;;;;;30.46;43.63;100507.78;107546;1256;108011;-68
2023/08/01 09:55:32;;;;;;;7.40;2.70;;;;;;;30.79;43.56;100504.09;107582;1251;97893;-69
2023/08/01 09:58:01;;;;;;;5.30;2.10;;;;;;;31.29;41.85;100503.52;107600;1251;97696;-66
2023/08/01 10:00:30;;;;;;;5.10;2.60;;;;;;;31.66;39.33;100499.64;107580;1251;111241;-67
2023/08/01 10:03:00;;;;;;;3.00;2.30;;;;;;;31.85;40.48;100495.09;107645;1251;109083;-67
2023/08/01 10:05:31;;;;;;;6.80;2.90;;;;;;;32.38;41.21;100481.70;107665;1251;108895;-67
2023/08/01 10:08:01;;;;;;;7.70;2.30;;;;;;;32.96;39.66;100479.66;107566;1254;97939;-66
2023/08/01 10:10:29;;;;;;;4.30;1.70;;;;;;;33.51;37.82;100477.60;107607;1251;99534;-69
2023/08/01 10:12:58;;;;;;;4.00;2.40;;;;;;;34.05;37.11;100474.99;107647;1251;112042;-67
2023/08/01 10:15:28;;;;;;;7.10;2.40;;;;;;;34.52;36.47;100472.31;107588;1251;110011;-67
2023/08/01 10:17:57;;;;;;;3.20;1.40;;;;;;;35.00;35.32;100471.34;107617;1251;108710;-66
2023/08/01 10:20:26;;;;;;;4.30;1.30;;;;;;;35.61;35.50;100464.85;107607;1251;97912;-66
2023/08/01 10:22:55;;;;;;;3.40;1.60;;;;;;;36.10;32.57;100459.81;107675;1251;98343;-66
2023/08/01 10:25:24;;;;;;;6.20;1.80;;;;;;;36.51;31.12;100454.40;107635;1251;111886;-66
2023/08/01 10:28:03;;;;;;;7.70;2.00;;;;;;;36.80;31.00;100450.84;107638;1251;109005;-66
2023/08/01 10:30:32;;;;;;;8.90;1.80;;;;;;;37.03;31.35;100450.52;107599;1251;108605;-67
2023/08/01 10:33:00;;;;;;;8.80;2.60;;;;;;;37.43;30.76;100446.02;107630;1251;97896;-67
2023/08/01 10:35:36;;;;;;;5.30;1.70;;;;;;;37.89;31.67;100448.79;107620;1251;97701;-67
2023/08/01 10:38:10;;;;;;;4.60;1.70;;;;;;;38.36;30.65;100440.20;107622;1254;113071;-68
2023/08/01 10:40:42;;;;;;;4.80;1.50;;;;;;;38.79;30.04;100444.50;107625;1250;109820;-72
2023/08/01 10:43:24;;;;;;;3.20;1.30;;;;;;;39.19;28.81;100441.09;107647;1251;108499;-68
2023/08/01 10:46:05;;;;;;;2.60;1.70;;;;;;;39.63;27.24;100442.48;107543;1251;97835;-68
2023/08/01 10:48:34;;;;;;;4.10;1.30;;;;;;;39.87;25.79;100436.89;107660;1251;97867;-71
2023/08/01 10:51:03;;;;;;;3.30;1.60;;;;;;;40.02;26.71;100437.04;107614;1254;111868;-68
2023/08/01 10:53:39;;;;;;;6.40;1.70;;;;;;;39.95;24.20;100438.09;107606;1251;109787;-70
2023/08/01 10:56:20;;;;;;;3.00;1.40;;;;;;;39.63;24.09;100433.32;107575;1255;108425;-71
2023/08/01 10:58:49;;;;;;;4.90;1.60;;;;;;;39.32;24.11;100428.73;107651;1253;97858;-68
2023/08/01 11:01:17;;;;;;;2.50;1.30;;;;;;;39.54;24.91;100428.35;107719;1251;97697;-72
2023/08/01 11:03:46;;;;;;;4.90;1.60;;;;;;;39.88;25.36;100423.08;107635;1251;111678;-70
2023/08/01 11:06:15;;;;;;;4.10;1.20;;;;;;;40.10;22.79;100424.58;107573;1251;110456;-73
2023/08/01 11:08:44;;;;;;;1.30;1.20;;;;;;;40.11;24.27;100418.17;107658;1251;108372;-71
2023/08/01 11:11:14;;;;;;;4.50;1.20;;;;;;;40.59;24.72;100414.97;107576;1251;97901;-69
2023/08/01 11:13:53;;;;;;;6.70;1.50;;;;;;;41.14;24.64;100408.69;107672;1251;97819;-70